createdAt,value
2022-08-11T00:00:09.476Z,13.70
2022-08-11T00:02:56.016Z,15.50
2022-08-11T00:05:22.512Z,14.70
2022-08-11T00:07:52.118Z,13.80
2022-08-11T00:10:22.545Z,11.80
2022-08-11T00:13:00.925Z,18.20
2022-08-11T00:15:41.866Z,17.80
2022-08-11T00:18:08.776Z,14.70
2022-08-11T00:20:40.210Z,9.50
2022-08-11T00:23:17.431Z,12.90
2022-08-11T00:25:50.152Z,13.20
2022-08-11T00:28:34.470Z,11.10
2022-08-11T00:31:08.067Z,8.90
2022-08-11T00:33:41.286Z,13.90
2022-08-11T00:36:15.492Z,16.10
2022-08-11T00:38:44.675Z,13.50
2022-08-11T00:41:29.155Z,21.00
2022-08-11T00:44:29.120Z,15.50
2022-08-11T00:47:09.230Z,16.10
2022-08-11T00:50:15.601Z,13.50
2022-08-11T00:53:25.440Z,17.30
2022-08-11T00:56:22.622Z,15.10
2022-08-11T00:59:34.481Z,15.00
2022-08-11T01:02:43.023Z,9.40
2022-08-11T01:05:37.322Z,11.60
2022-08-11T01:08:31.109Z,12.30
2022-08-11T01:11:28.706Z,12.50
2022-08-11T01:14:46.327Z,10.40
2022-08-11T01:18:13.812Z,11.40
2022-08-11T01:21:13.111Z,17.60
2022-08-11T01:24:19.759Z,14.70
2022-08-11T01:27:26.913Z,17.40
2022-08-11T01:30:17.743Z,11.80
2022-08-11T01:33:23.216Z,18.20
2022-08-11T01:36:14.186Z,22.70
2022-08-11T01:38:59.225Z,18.60
2022-08-11T01:42:20.062Z,12.40
2022-08-11T01:45:20.294Z,8.80
2022-08-11T01:48:27.547Z,13.60
2022-08-11T01:51:40.847Z,14.80
2022-08-11T01:54:28.015Z,14.60
2022-08-11T01:57:38.260Z,13.40
2022-08-11T02:00:27.618Z,15.60
2022-08-11T02:03:20.659Z,11.40
2022-08-11T02:09:25.257Z,9.70
2022-08-11T02:11:53.072Z,11.10
2022-08-11T02:14:39.152Z,15.90
2022-08-11T02:17:18.872Z,19.80
2022-08-11T02:20:18.134Z,20.20
2022-08-11T02:24:04.075Z,16.00
2022-08-11T02:26:50.056Z,16.50
2022-08-11T02:29:33.314Z,15.20
2022-08-11T02:32:47.749Z,18.30
2022-08-11T02:35:36.063Z,15.80
2022-08-11T02:38:21.352Z,16.50
2022-08-11T02:41:00.064Z,16.30
2022-08-11T02:43:51.023Z,17.20
2022-08-11T02:46:47.345Z,15.50
2022-08-11T02:50:05.915Z,27.00
2022-08-11T02:52:50.305Z,21.70
2022-08-11T02:55:56.171Z,14.60
2022-08-11T02:58:36.629Z,20.00
2022-08-11T03:01:18.356Z,18.10
2022-08-11T03:04:00.127Z,16.50
2022-08-11T03:06:41.052Z,15.30
2022-08-11T03:09:35.246Z,14.30
2022-08-11T03:12:34.316Z,29.00
2022-08-11T03:15:40.715Z,13.30
2022-08-11T03:18:29.178Z,15.70
2022-08-11T03:21:05.435Z,14.10
2022-08-11T03:24:04.428Z,11.70
2022-08-11T03:27:05.472Z,17.90
2022-08-11T03:30:13.846Z,11.80
2022-08-11T03:33:11.537Z,18.40
2022-08-11T03:35:47.881Z,14.10
2022-08-11T03:38:15.559Z,19.20
2022-08-11T03:41:54.687Z,14.20
2022-08-11T03:45:14.960Z,12.70
2022-08-11T03:48:19.163Z,13.30
2022-08-11T03:51:22.036Z,14.80
2022-08-11T03:54:05.383Z,16.80
2022-08-11T03:57:08.788Z,13.20
2022-08-11T04:00:10.545Z,10.30
2022-08-11T04:03:31.525Z,12.60
2022-08-11T04:06:35.780Z,17.00
2022-08-11T04:10:01.169Z,16.60
2022-08-11T04:12:52.660Z,18.80
2022-08-11T04:16:20.739Z,14.10
2022-08-11T04:19:02.076Z,12.60
2022-08-11T04:21:57.410Z,23.60
2022-08-11T04:24:50.251Z,17.40
2022-08-11T04:28:02.002Z,17.10
2022-08-11T04:31:05.774Z,14.40
2022-08-11T04:34:06.449Z,15.70
2022-08-11T04:37:51.298Z,21.20
2022-08-11T04:41:13.725Z,15.80
2022-08-11T04:44:18.013Z,16.30
2022-08-11T04:48:01.462Z,12.60
2022-08-11T04:51:17.348Z,16.30
2022-08-11T04:54:16.367Z,15.90
2022-08-11T04:57:02.969Z,11.20
2022-08-11T05:00:13.653Z,14.30
2022-08-11T05:03:23.735Z,8.80
2022-08-11T05:06:26.577Z,10.40
2022-08-11T05:09:19.369Z,10.30
2022-08-11T05:12:25.406Z,13.70
2022-08-11T05:15:11.806Z,14.00
2022-08-11T05:18:32.837Z,9.30
2022-08-11T05:21:25.694Z,15.80
2022-08-11T05:27:13.303Z,12.20
2022-08-11T05:30:14.391Z,11.60
2022-08-11T05:33:02.672Z,12.90
2022-08-11T05:36:01.915Z,13.00
2022-08-11T05:38:52.914Z,16.50
2022-08-11T05:41:42.827Z,11.10
2022-08-11T05:44:29.372Z,8.10
2022-08-11T05:47:15.287Z,13.90
2022-08-11T05:50:00.914Z,10.30
2022-08-11T05:52:49.188Z,14.20
2022-08-11T05:55:58.405Z,12.70
2022-08-11T05:58:55.426Z,9.20
2022-08-11T06:01:31.598Z,11.10
2022-08-11T06:04:17.757Z,11.70
2022-08-11T06:06:54.349Z,15.00
2022-08-11T06:09:38.051Z,10.80
2022-08-11T06:12:20.104Z,13.40
2022-08-11T06:14:49.952Z,7.50
2022-08-11T06:17:38.826Z,14.60
2022-08-11T06:20:12.413Z,5.90
2022-08-11T06:22:42.722Z,8.50
2022-08-11T06:25:11.721Z,13.00
2022-08-11T06:27:40.534Z,12.50
2022-08-11T06:30:14.038Z,11.60
2022-08-11T06:32:45.912Z,11.60
2022-08-11T06:35:26.642Z,12.70
2022-08-11T06:38:11.688Z,11.30
2022-08-11T06:41:12.692Z,9.60
2022-08-11T06:44:05.657Z,11.70
2022-08-11T06:46:38.857Z,10.20
2022-08-11T06:49:30.853Z,13.30
2022-08-11T06:52:02.918Z,8.00
2022-08-11T06:54:43.905Z,16.20
2022-08-11T06:57:36.981Z,8.20
2022-08-11T07:00:24.337Z,8.90
2022-08-11T07:03:03.442Z,11.00
2022-08-11T07:06:08.058Z,8.60
2022-08-11T07:09:03.629Z,17.90
2022-08-11T07:12:08.217Z,12.10
2022-08-11T07:14:58.265Z,6.80
2022-08-11T07:17:28.417Z,8.40
2022-08-11T07:20:18.125Z,10.20
2022-08-11T07:23:13.074Z,5.80
2022-08-11T07:26:01.478Z,7.90
2022-08-11T07:28:48.714Z,9.90
2022-08-11T07:31:35.397Z,9.40
2022-08-11T07:34:20.264Z,9.20
2022-08-11T07:36:58.075Z,8.50
2022-08-11T07:39:31.734Z,17.00
2022-08-11T07:42:02.837Z,8.20
2022-08-11T07:44:34.738Z,8.70
2022-08-11T07:47:21.199Z,3.70
2022-08-11T07:50:07.031Z,7.80
2022-08-11T07:52:37.534Z,4.40
2022-08-11T07:55:16.371Z,6.70
2022-08-11T07:58:16.424Z,4.70
2022-08-11T08:01:21.771Z,4.50
2022-08-11T08:04:09.228Z,3.30
2022-08-11T08:06:56.501Z,4.50
2022-08-11T08:09:42.920Z,4.70
2022-08-11T08:12:28.632Z,9.10
2022-08-11T08:15:14.369Z,4.50
2022-08-11T08:18:08.408Z,8.30
2022-08-11T08:20:49.257Z,6.50
2022-08-11T08:23:16.763Z,7.40
2022-08-11T08:25:45.049Z,4.60
2022-08-11T08:28:15.692Z,3.10
2022-08-11T08:30:47.082Z,4.30
2022-08-11T08:33:22.994Z,4.50
2022-08-11T08:36:10.889Z,2.20
2022-08-11T08:38:42.560Z,4.70
2022-08-11T08:43:48.773Z,4.40
2022-08-11T08:46:20.522Z,4.50
2022-08-11T08:48:48.779Z,3.50
2022-08-11T08:51:54.892Z,3.50
2022-08-11T08:54:27.369Z,6.80
2022-08-11T08:56:55.598Z,5.80
2022-08-11T08:59:25.742Z,4.40
2022-08-11T09:01:59.975Z,5.90
2022-08-11T09:04:27.250Z,4.70
2022-08-11T09:06:57.811Z,3.50
2022-08-11T09:09:24.711Z,6.60
2022-08-11T09:11:58.979Z,3.50
2022-08-11T09:14:52.352Z,4.60
2022-08-11T09:17:19.841Z,3.60
2022-08-11T09:19:49.459Z,4.70
2022-08-11T09:22:42.322Z,5.30
2022-08-11T09:25:27.749Z,8.40
2022-08-11T09:27:55.977Z,4.90
2022-08-11T09:30:25.372Z,5.20
2022-08-11T09:32:57.467Z,3.80
2022-08-11T09:35:27.311Z,3.30
2022-08-11T09:38:14.362Z,3.80
2022-08-11T09:40:46.394Z,2.60
2022-08-11T09:43:42.190Z,4.00
2022-08-11T09:46:11.010Z,2.70
2022-08-11T09:48:45.439Z,16.50
2022-08-11T09:51:13.502Z,5.50
2022-08-11T09:53:47.211Z,4.40
2022-08-11T09:56:48.318Z,9.60
2022-08-11T09:59:19.971Z,4.30
2022-08-11T10:01:49.959Z,3.70
2022-08-11T10:04:34.205Z,8.00
2022-08-11T10:07:05.136Z,2.40
2022-08-11T10:09:40.760Z,5.00
2022-08-11T10:12:14.997Z,3.00
2022-08-11T10:15:03.370Z,6.10
2022-08-11T10:17:33.625Z,8.30
2022-08-11T10:20:05.161Z,3.10
2022-08-11T10:22:53.786Z,4.10
2022-08-11T10:25:39.854Z,4.20
2022-08-11T10:28:33.901Z,3.20
2022-08-11T10:31:32.573Z,5.10
2022-08-11T10:34:16.891Z,4.40
2022-08-11T10:36:49.081Z,7.20
2022-08-11T10:39:19.023Z,3.20
2022-08-11T10:42:09.630Z,5.60
2022-08-11T10:44:41.905Z,2.80
2022-08-11T10:47:29.340Z,3.60
2022-08-11T10:50:14.432Z,4.00
2022-08-11T10:53:00.529Z,3.60
2022-08-11T10:55:46.002Z,4.00
2022-08-11T10:58:31.464Z,5.10
2022-08-11T11:00:59.994Z,3.40
2022-08-11T11:03:29.549Z,3.90
2022-08-11T11:06:28.608Z,6.00
2022-08-11T11:09:11.252Z,2.40
2022-08-11T11:12:01.945Z,5.10
2022-08-11T11:14:58.317Z,4.20
2022-08-11T11:17:51.241Z,9.00
2022-08-11T11:23:13.756Z,3.80
2022-08-11T11:26:27.625Z,3.60
2022-08-11T11:29:24.998Z,3.60
2022-08-11T11:32:06.036Z,3.40
2022-08-11T11:35:29.222Z,18.20
2022-08-11T11:38:04.370Z,3.70
2022-08-11T11:40:32.697Z,4.30
2022-08-11T11:43:00.004Z,4.60
2022-08-11T11:45:26.511Z,4.30
2022-08-11T11:47:55.042Z,2.50
2022-08-11T11:50:31.438Z,4.70
2022-08-11T11:53:03.584Z,4.90
2022-08-11T11:55:30.667Z,4.90
2022-08-11T11:58:19.145Z,7.90
2022-08-11T12:01:05.042Z,2.60
2022-08-11T12:03:35.181Z,3.10
2022-08-11T12:06:03.017Z,4.20
2022-08-11T12:08:30.343Z,3.00
2022-08-11T12:11:19.768Z,2.40
2022-08-11T12:13:49.816Z,3.20
2022-08-11T12:16:33.793Z,6.80
2022-08-11T12:19:07.773Z,5.10
2022-08-11T12:21:36.270Z,3.20
2022-08-11T12:24:22.494Z,2.60
2022-08-11T12:27:17.612Z,8.00
2022-08-11T12:29:55.626Z,4.40
2022-08-11T12:32:29.804Z,2.80
2022-08-11T12:34:57.218Z,3.90
2022-08-11T12:37:33.946Z,6.40
2022-08-11T12:40:42.450Z,2.30
2022-08-11T12:43:39.531Z,3.90
2022-08-11T12:46:11.026Z,4.20
2022-08-11T12:49:03.784Z,2.90
2022-08-11T12:52:13.022Z,4.20
2022-08-11T12:54:59.354Z,4.50
2022-08-11T12:57:55.921Z,4.70
2022-08-11T13:00:42.630Z,2.60
2022-08-11T13:03:30.298Z,10.30
2022-08-11T13:06:03.106Z,3.90
2022-08-11T13:08:35.068Z,2.60
2022-08-11T13:11:21.668Z,6.60
2022-08-11T13:13:55.313Z,3.00
2022-08-11T13:16:31.712Z,5.40
2022-08-11T13:19:02.890Z,3.40
2022-08-11T13:21:29.775Z,3.60
2022-08-11T13:24:01.507Z,4.10
2022-08-11T13:26:47.014Z,6.40
2022-08-11T13:29:24.251Z,8.10
2022-08-11T13:31:57.777Z,5.60
2022-08-11T13:34:26.593Z,4.50
2022-08-11T13:36:56.314Z,5.00
2022-08-11T13:39:30.601Z,3.40
2022-08-11T13:42:00.041Z,5.50
2022-08-11T13:44:30.615Z,4.40
2022-08-11T13:47:03.990Z,5.90
2022-08-11T13:49:34.692Z,3.60
2022-08-11T13:52:03.335Z,3.30
2022-08-11T13:54:32.297Z,4.70
2022-08-11T13:57:13.447Z,3.70
2022-08-11T14:00:09.943Z,3.50
2022-08-11T14:02:56.322Z,5.30
2022-08-11T14:05:50.627Z,4.10
2022-08-11T14:08:37.526Z,4.30
2022-08-11T14:12:23.071Z,7.40
2022-08-11T14:14:24.306Z,3.50
2022-08-11T14:16:57.502Z,4.40
2022-08-11T14:19:28.863Z,5.10
2022-08-11T14:22:10.299Z,2.80
2022-08-11T14:24:44.390Z,4.50
2022-08-11T14:28:30.470Z,4.90
2022-08-11T14:30:05.106Z,6.00
2022-08-11T14:32:35.900Z,10.30
2022-08-11T14:35:21.653Z,7.00
2022-08-11T14:37:50.306Z,6.10
2022-08-11T14:40:37.210Z,4.40
2022-08-11T14:44:12.695Z,12.80
2022-08-11T14:49:04.041Z,6.90
2022-08-11T14:51:33.161Z,5.90
2022-08-11T14:54:21.586Z,4.20
2022-08-11T14:56:50.890Z,4.00
2022-08-11T14:59:19.411Z,4.80
2022-08-11T15:02:06.788Z,4.70
2022-08-11T15:04:36.825Z,8.00
2022-08-11T15:07:05.495Z,8.00
2022-08-11T15:10:11.696Z,5.80
2022-08-11T15:12:35.853Z,7.20
2022-08-11T15:15:25.397Z,5.70
2022-08-11T15:17:55.920Z,7.00
2022-08-11T15:20:48.209Z,6.50
2022-08-11T15:23:40.962Z,3.40
2022-08-11T15:26:16.613Z,5.50
2022-08-11T15:29:10.063Z,6.00
2022-08-11T15:31:44.293Z,9.90
2022-08-11T15:34:39.197Z,5.30
2022-08-11T15:37:31.640Z,9.50
2022-08-11T15:43:34.254Z,5.70
2022-08-11T15:46:12.346Z,2.20
2022-08-11T15:48:52.183Z,6.10
2022-08-11T15:51:32.651Z,7.10
2022-08-11T15:54:09.089Z,7.50
2022-08-11T15:56:44.565Z,3.90
2022-08-11T15:59:41.640Z,3.30
2022-08-11T16:02:37.528Z,10.10
2022-08-11T16:05:10.884Z,4.90
2022-08-11T16:07:40.630Z,10.50
2022-08-11T16:10:19.621Z,3.60
2022-08-11T16:13:06.013Z,5.50
2022-08-11T16:15:57.108Z,5.70
2022-08-11T16:18:43.068Z,8.30
2022-08-11T16:21:33.556Z,13.10
2022-08-11T16:26:17.652Z,5.10
2022-08-11T16:27:10.384Z,4.50
2022-08-11T16:29:48.035Z,4.60
2022-08-11T16:32:22.352Z,3.80
2022-08-11T16:35:20.145Z,3.80
2022-08-11T16:38:08.655Z,4.50
2022-08-11T16:40:37.776Z,4.40
2022-08-11T16:43:27.860Z,4.90
2022-08-11T16:46:15.140Z,3.70
2022-08-11T16:48:46.668Z,3.20
2022-08-11T16:51:15.164Z,3.90
2022-08-11T16:53:46.053Z,3.90
2022-08-11T16:56:42.405Z,6.00
2022-08-11T16:59:18.295Z,4.30
2022-08-11T17:01:56.422Z,6.00
2022-08-11T17:05:20.166Z,9.80
2022-08-11T17:08:07.023Z,9.90
2022-08-11T17:11:03.918Z,5.60
2022-08-11T17:13:38.824Z,5.10
2022-08-11T17:16:12.954Z,5.20
2022-08-11T17:18:58.975Z,9.70
2022-08-11T17:21:58.724Z,5.10
2022-08-11T17:24:28.677Z,5.10
2022-08-11T17:26:58.202Z,5.80
2022-08-11T17:29:54.880Z,6.80
2022-08-11T17:32:55.978Z,6.10
2022-08-11T17:35:32.248Z,7.30
2022-08-11T17:38:12.262Z,5.20
2022-08-11T17:41:14.533Z,7.50
2022-08-11T17:44:11.554Z,4.20
2022-08-11T17:47:05.190Z,5.80
2022-08-11T17:49:39.764Z,6.30
2022-08-11T17:52:28.787Z,6.20
2022-08-11T17:55:51.715Z,5.00
2022-08-11T17:58:41.015Z,8.60
2022-08-11T18:01:12.836Z,9.20
2022-08-11T18:03:57.884Z,8.00
2022-08-11T18:06:34.187Z,8.50
2022-08-11T18:09:28.917Z,9.80
2022-08-11T18:12:16.519Z,8.60
2022-08-11T18:15:08.545Z,10.50
2022-08-11T18:17:56.239Z,12.10
2022-08-11T18:20:44.060Z,12.70
2022-08-11T18:23:46.695Z,11.00
2022-08-11T18:26:38.878Z,10.80
2022-08-11T18:29:26.325Z,30.30
2022-08-11T18:32:22.027Z,8.70
2022-08-11T18:35:11.383Z,10.80
2022-08-11T18:38:06.753Z,10.90
2022-08-11T18:40:54.607Z,13.00
2022-08-11T18:43:44.595Z,25.30
2022-08-11T18:46:35.159Z,13.20
2022-08-11T18:52:41.839Z,21.50
2022-08-11T18:55:34.254Z,15.80
2022-08-11T18:58:28.422Z,15.40
2022-08-11T19:01:17.794Z,13.70
2022-08-11T19:04:10.631Z,12.30
2022-08-11T19:07:01.047Z,20.80
2022-08-11T19:09:49.076Z,18.70
2022-08-11T19:12:36.506Z,12.50
2022-08-11T19:15:23.950Z,19.40
2022-08-11T19:18:11.907Z,26.20
2022-08-11T19:21:01.362Z,17.70
2022-08-11T19:23:54.394Z,16.40
2022-08-11T19:26:42.840Z,11.80
2022-08-11T19:30:07.194Z,15.50
2022-08-11T19:32:40.158Z,18.30
2022-08-11T19:35:28.893Z,13.00
2022-08-11T19:38:20.513Z,10.60
2022-08-11T19:41:09.286Z,22.50
2022-08-11T19:43:59.657Z,15.10
2022-08-11T19:46:47.637Z,16.70
2022-08-11T19:49:35.616Z,13.20
2022-08-11T19:52:26.063Z,11.20
2022-08-11T19:55:14.167Z,13.40
2022-08-11T19:58:03.009Z,8.10
2022-08-11T20:00:52.419Z,12.10
2022-08-11T20:03:41.492Z,13.50
2022-08-11T20:06:28.616Z,10.90
2022-08-11T20:09:19.404Z,9.70
2022-08-11T20:12:12.509Z,19.80
2022-08-11T20:15:21.906Z,27.70
2022-08-11T20:18:10.862Z,24.30
2022-08-11T20:20:59.626Z,20.90
2022-08-11T20:23:49.154Z,21.40
2022-08-11T20:26:38.098Z,23.60
2022-08-11T20:29:27.320Z,18.50
2022-08-11T20:32:16.791Z,22.40
2022-08-11T20:35:47.411Z,18.00
2022-08-11T20:38:50.332Z,26.00
2022-08-11T20:41:58.236Z,18.50
2022-08-11T20:44:46.929Z,12.50
2022-08-11T20:47:56.152Z,12.00
2022-08-11T20:50:45.759Z,16.50
2022-08-11T20:53:39.200Z,20.60
2022-08-11T20:56:30.074Z,21.80
2022-08-11T20:59:21.840Z,20.40
2022-08-11T21:02:10.700Z,14.40
2022-08-11T21:05:00.733Z,11.00
2022-08-11T21:07:58.872Z,12.20
2022-08-11T21:10:52.634Z,11.20
2022-08-11T21:13:46.618Z,14.30
2022-08-11T21:16:40.920Z,18.10
2022-08-11T21:19:59.752Z,15.00
2022-08-11T21:22:59.216Z,10.70
2022-08-11T21:26:08.205Z,11.60
2022-08-11T21:28:58.345Z,12.80
2022-08-11T21:31:48.569Z,8.50
2022-08-11T21:34:38.328Z,13.00
2022-08-11T21:37:26.866Z,14.60
2022-08-11T21:40:17.056Z,8.70
2022-08-11T21:43:06.556Z,14.50
2022-08-11T21:45:57.138Z,13.40
2022-08-11T21:48:48.190Z,13.90
2022-08-11T21:51:34.802Z,18.70
2022-08-11T21:54:21.350Z,24.30
2022-08-11T21:57:09.370Z,26.00
2022-08-11T22:00:11.000Z,27.50
2022-08-11T22:02:58.715Z,16.50
2022-08-11T22:05:45.652Z,13.40
2022-08-11T22:08:33.457Z,12.70
2022-08-11T22:11:32.465Z,17.70
2022-08-11T22:14:24.507Z,21.10
2022-08-11T22:17:10.909Z,17.30
2022-08-11T22:20:00.834Z,12.90
2022-08-11T22:22:52.888Z,11.90
2022-08-11T22:25:51.507Z,15.10
2022-08-11T22:28:40.876Z,14.00
2022-08-11T22:31:27.965Z,17.10
2022-08-11T22:34:14.960Z,16.10
2022-08-11T22:37:03.801Z,24.20
2022-08-11T22:39:59.905Z,15.80
2022-08-11T22:42:52.852Z,23.10
2022-08-11T22:45:40.141Z,14.40
2022-08-11T22:48:28.599Z,21.80
2022-08-11T22:51:17.181Z,26.20
2022-08-11T22:54:04.997Z,21.70
2022-08-11T22:56:52.009Z,17.70
2022-08-11T22:59:39.093Z,27.50
2022-08-11T23:02:26.266Z,23.80
2022-08-11T23:05:13.868Z,22.40
2022-08-11T23:08:00.766Z,19.50
2022-08-11T23:10:47.251Z,16.00
2022-08-11T23:13:34.158Z,19.30
2022-08-11T23:16:21.147Z,19.90
2022-08-11T23:19:08.152Z,15.10
2022-08-11T23:21:55.991Z,12.60
2022-08-11T23:24:44.884Z,13.00
2022-08-11T23:27:32.886Z,17.10
2022-08-11T23:30:21.069Z,15.50
2022-08-11T23:33:13.721Z,16.80
2022-08-11T23:36:05.632Z,18.20
2022-08-11T23:38:52.850Z,11.30
2022-08-11T23:41:40.246Z,13.40
2022-08-11T23:44:28.400Z,16.90
2022-08-11T23:47:19.383Z,13.90
2022-08-11T23:50:07.297Z,12.50
2022-08-11T23:52:54.298Z,13.80
2022-08-11T23:55:40.809Z,10.50
2022-08-11T23:58:28.315Z,16.00
